Time;durP1;ratioP1;P1;durP2;ratioP2;P2;SDS_P1;SDS_P2;PMS_P1;PMS_P2;Temp;Humidity;BMP_temperature;BMP_pressure;BME280_temperature;BME280_humidity;BME280_pressure;Samples;Min_cycle;Max_cycle;Signal;HPM_P1;HPM_P2
2022/07/29 00:00:48;;;;;;;5.28;2.90;;;;;;;;;;1645272;85;21113;-74
2022/07/29 00:03:15;;;;;;;3.00;2.70;;;;;;;;;;1650554;86;21574;-74
2022/07/29 00:05:42;;;;;;;3.00;2.70;;;;;;;;;;1650582;86;21564;-74
2022/07/29 00:08:09;;;;;;;3.15;2.85;;;;;;;;;;1651682;85;21088;-74
2022/07/29 00:10:38;;;;;;;4.22;2.65;;;;;;;;;;1654539;86;21548;-73
2022/07/29 00:13:05;;;;;;;4.22;2.80;;;;;;;;;;1655542;86;21592;-74
2022/07/29 00:15:34;;;;;;;4.25;3.08;;;;;;;;;;1652278;85;21132;-73
2022/07/29 00:18:00;;;;;;;6.35;3.02;;;;;;;;;;1655935;85;21107;-74
2022/07/29 00:20:28;;;;;;;4.05;2.92;;;;;;;;;;1704639;83;21017;-74
2022/07/29 00:22:57;;;;;;;3.50;2.98;;;;;;;;;;1702277;82;21267;-75
2022/07/29 00:25:24;;;;;;;5.28;2.90;;;;;;;;;;1706172;82;21182;-74
2022/07/29 00:27:51;;;;;;;6.30;2.98;;;;;;;;;;1707419;82;21032;-74
2022/07/29 00:30:19;;;;;;;3.12;2.77;;;;;;;;;;1710635;82;21528;-74
2022/07/29 00:32:45;;;;;;;5.37;3.08;;;;;;;;;;1705337;83;21046;-75
2022/07/29 00:37:57;;;;;;;5.35;3.10;;;;;;;;;;1709623;82;22785;-74
2022/07/29 00:40:24;;;;;;;4.85;3.08;;;;;;;;;;1703116;83;21072;-74
2022/07/29 00:42:52;;;;;;;8.05;3.22;;;;;;;;;;1705349;82;21030;-74
2022/07/29 00:45:21;;;;;;;4.00;3.10;;;;;;;;;;1704033;83;21066;-74
2022/07/29 00:47:48;;;;;;;5.22;3.10;;;;;;;;;;1708180;82;21031;-75
2022/07/29 00:50:15;;;;;;;4.65;2.92;;;;;;;;;;1704550;83;21193;-75
2022/07/29 00:52:43;;;;;;;3.33;3.02;;;;;;;;;;1704026;82;21109;-75
2022/07/29 00:55:12;;;;;;;3.58;2.70;;;;;;;;;;1683926;83;21096;-76
2022/07/29 00:57:41;;;;;;;5.03;2.87;;;;;;;;;;1705011;83;21077;-75
2022/07/29 01:00:11;;;;;;;8.33;3.25;;;;;;;;;;1707626;82;21031;-74
2022/07/29 01:02:38;;;;;;;5.25;3.35;;;;;;;;;;1711924;82;21048;-74
2022/07/29 01:05:06;;;;;;;3.00;2.70;;;;;;;;;;1703765;84;21537;-74
2022/07/29 01:07:35;;;;;;;4.20;3.00;;;;;;;;;;1703238;82;21082;-74
2022/07/29 01:10:07;;;;;;;5.90;3.00;;;;;;;;;;1707048;83;21013;-74
2022/07/29 01:12:35;;;;;;;4.47;2.80;;;;;;;;;;1699278;82;21082;-74
2022/07/29 01:15:06;;;;;;;4.70;2.85;;;;;;;;;;1703918;83;21116;-75
2022/07/29 01:17:52;;;;;;;5.08;2.83;;;;;;;;;;1705006;83;21063;-75
2022/07/29 01:20:40;;;;;;;4.37;2.90;;;;;;;;;;1704792;82;21049;-74
2022/07/29 01:23:26;;;;;;;5.42;3.17;;;;;;;;;;1704022;84;21031;-74
2022/07/29 01:26:13;;;;;;;4.12;3.00;;;;;;;;;;1704074;83;21052;-75
2022/07/29 01:29:11;;;;;;;5.25;3.15;;;;;;;;;;1706034;82;21579;-75
2022/07/29 01:31:56;;;;;;;3.15;2.85;;;;;;;;;;1644647;85;21058;-74
2022/07/29 01:34:51;;;;;;;3.00;2.60;;;;;;;;;;1646660;85;21050;-75
2022/07/29 01:37:44;;;;;;;3.50;2.65;;;;;;;;;;1692134;83;21061;-76
2022/07/29 01:40:20;;;;;;;3.58;2.50;;;;;;;;;;1709010;82;21023;-75
2022/07/29 01:42:56;;;;;;;3.33;2.87;;;;;;;;;;1699082;82;21051;-75
2022/07/29 01:45:30;;;;;;;3.87;2.87;;;;;;;;;;1708904;83;21097;-75
2022/07/29 01:48:00;;;;;;;4.35;2.95;;;;;;;;;;1704138;84;21037;-74
2022/07/29 01:50:33;;;;;;;4.08;2.70;;;;;;;;;;1683832;83;21084;-75
2022/07/29 01:53:02;;;;;;;4.10;2.70;;;;;;;;;;1703151;83;21094;-75
2022/07/29 01:55:32;;;;;;;3.58;2.60;;;;;;;;;;1704518;83;21106;-75
2022/07/29 01:58:00;;;;;;;2.67;2.40;;;;;;;;;;1710348;82;21060;-76
2022/07/29 02:00:27;;;;;;;3.12;2.50;;;;;;;;;;1704076;84;20997;-75
2022/07/29 02:02:56;;;;;;;3.65;2.67;;;;;;;;;;1709057;82;21060;-75
2022/07/29 02:05:24;;;;;;;5.33;2.60;;;;;;;;;;1705485;82;21117;-75
2022/07/29 02:07:52;;;;;;;3.80;2.50;;;;;;;;;;1707923;82;21062;-75
2022/07/29 02:10:22;;;;;;;4.85;2.65;;;;;;;;;;1710857;82;21010;-75
2022/07/29 02:12:50;;;;;;;3.47;2.80;;;;;;;;;;1705248;82;21003;-75
2022/07/29 02:15:18;;;;;;;6.08;2.60;;;;;;;;;;1704355;82;21081;-75
2022/07/29 02:17:52;;;;;;;2.83;2.58;;;;;;;;;;1703373;82;21068;-75
2022/07/29 02:20:20;;;;;;;2.87;2.67;;;;;;;;;;1702982;82;21044;-74
2022/07/29 02:22:50;;;;;;;3.47;2.77;;;;;;;;;;1702080;83;21100;-74
2022/07/29 02:25:18;;;;;;;6.25;2.90;;;;;;;;;;1711891;83;21123;-75
2022/07/29 02:27:46;;;;;;;4.37;2.67;;;;;;;;;;1707416;82;21519;-75
2022/07/29 02:30:13;;;;;;;5.47;2.40;;;;;;;;;;1705075;83;21048;-75
2022/07/29 02:32:42;;;;;;;4.35;3.08;;;;;;;;;;1701613;83;21033;-75
2022/07/29 02:35:10;;;;;;;3.35;2.80;;;;;;;;;;1704699;82;21043;-74
2022/07/29 02:37:38;;;;;;;4.28;2.60;;;;;;;;;;1681294;83;21017;-74
2022/07/29 02:40:09;;;;;;;3.33;2.70;;;;;;;;;;1701248;83;21043;-74
2022/07/29 02:42:37;;;;;;;7.78;2.80;;;;;;;;;;1705786;83;21022;-73
2022/07/29 02:45:05;;;;;;;3.12;2.80;;;;;;;;;;1711840;83;21060;-73
2022/07/29 02:47:42;;;;;;;3.55;2.72;;;;;;;;;;1716390;82;21050;-74
2022/07/29 02:50:16;;;;;;;3.75;2.70;;;;;;;;;;1705926;83;21072;-74
2022/07/29 02:52:48;;;;;;;4.35;2.65;;;;;;;;;;1703931;82;21030;-73
2022/07/29 02:55:22;;;;;;;5.40;3.20;;;;;;;;;;1709573;82;21576;-73
2022/07/29 02:58:03;;;;;;;3.33;2.85;;;;;;;;;;1704401;82;21015;-73
2022/07/29 03:00:34;;;;;;;4.80;3.30;;;;;;;;;;1693897;82;21551;-73
2022/07/29 03:03:03;;;;;;;7.40;3.00;;;;;;;;;;1700466;82;21017;-73
2022/07/29 03:05:31;;;;;;;2.87;2.65;;;;;;;;;;1696478;82;21016;-73
2022/07/29 03:08:04;;;;;;;6.62;2.95;;;;;;;;;;1703037;83;21047;-73
2022/07/29 03:10:31;;;;;;;6.97;3.00;;;;;;;;;;1701962;83;21036;-73
2022/07/29 03:13:00;;;;;;;3.45;2.92;;;;;;;;;;1700574;83;21095;-73
2022/07/29 03:15:27;;;;;;;3.83;3.20;;;;;;;;;;1705281;82;21038;-73
2022/07/29 03:17:56;;;;;;;3.20;2.92;;;;;;;;;;1703673;83;21041;-73
2022/07/29 03:20:24;;;;;;;3.37;2.90;;;;;;;;;;1707434;82;21098;-72
2022/07/29 03:22:50;;;;;;;5.87;3.00;;;;;;;;;;1699032;82;21120;-74
2022/07/29 03:25:19;;;;;;;6.00;2.80;;;;;;;;;;1709645;83;21048;-73
2022/07/29 03:27:47;;;;;;;3.85;2.95;;;;;;;;;;1698049;82;21018;-73
2022/07/29 03:30:19;;;;;;;4.95;3.10;;;;;;;;;;1710844;83;21606;-73
2022/07/29 03:32:44;;;;;;;5.15;3.22;;;;;;;;;;1703793;83;21067;-72
2022/07/29 03:35:11;;;;;;;4.60;3.00;;;;;;;;;;1715158;83;21009;-73
2022/07/29 03:37:38;;;;;;;4.60;3.40;;;;;;;;;;1709278;83;21066;-73
2022/07/29 03:40:07;;;;;;;4.78;3.47;;;;;;;;;;1710362;83;21048;-74
2022/07/29 03:42:38;;;;;;;3.83;3.42;;;;;;;;;;1706358;82;21032;-73
2022/07/29 03:45:11;;;;;;;5.20;3.42;;;;;;;;;;1705413;82;21090;-73
2022/07/29 03:47:43;;;;;;;5.83;3.60;;;;;;;;;;1648261;86;21064;-73
2022/07/29 03:50:13;;;;;;;4.62;3.37;;;;;;;;;;1655287;86;21099;-73
2022/07/29 03:52:41;;;;;;;8.05;3.52;;;;;;;;;;1656192;86;21088;-73
2022/07/29 03:55:09;;;;;;;4.65;3.37;;;;;;;;;;1654547;84;21033;-73
2022/07/29 03:57:37;;;;;;;6.65;3.30;;;;;;;;;;1653416;85;21012;-73
2022/07/29 04:00:08;;;;;;;4.40;3.20;;;;;;;;;;1647399;86;21576;-73
2022/07/29 04:02:35;;;;;;;3.98;3.58;;;;;;;;;;1621967;85;21048;-73
2022/07/29 04:05:04;;;;;;;6.40;3.65;;;;;;;;;;1652734;86;21100;-73
2022/07/29 04:07:32;;;;;;;5.92;3.95;;;;;;;;;;1654683;85;21143;-73
2022/07/29 04:09:59;;;;;;;6.45;3.75;;;;;;;;;;1658531;86;21084;-74
2022/07/29 04:12:27;;;;;;;6.08;3.80;;;;;;;;;;1647334;85;21184;-74
2022/07/29 04:14:55;;;;;;;5.62;3.50;;;;;;;;;;1654769;86;21056;-72
2022/07/29 04:17:22;;;;;;;5.53;3.87;;;;;;;;;;1651096;85;21048;-73
2022/07/29 04:19:49;;;;;;;8.33;4.03;;;;;;;;;;1654419;85;21179;-73
2022/07/29 04:22:17;;;;;;;5.33;4.15;;;;;;;;;;1650145;85;21032;-72
2022/07/29 04:24:44;;;;;;;5.17;4.35;;;;;;;;;;1708293;83;21162;-73
2022/07/29 04:27:13;;;;;;;7.08;4.35;;;;;;;;;;1703416;82;21087;-72
2022/07/29 04:29:42;;;;;;;5.30;4.53;;;;;;;;;;1704517;82;21049;-74
2022/07/29 04:32:09;;;;;;;7.37;4.87;;;;;;;;;;1703843;83;21061;-73
2022/07/29 04:34:38;;;;;;;6.85;4.92;;;;;;;;;;1702930;82;21042;-74
2022/07/29 04:37:05;;;;;;;7.70;4.70;;;;;;;;;;1707194;82;21025;-72
2022/07/29 04:39:33;;;;;;;9.28;4.58;;;;;;;;;;1703459;82;21064;-72
2022/07/29 04:42:02;;;;;;;9.20;4.50;;;;;;;;;;1700123;83;21602;-73
2022/07/29 04:44:30;;;;;;;6.42;4.28;;;;;;;;;;1704674;83;21567;-74
2022/07/29 04:46:57;;;;;;;6.67;4.30;;;;;;;;;;1697889;82;21095;-73
2022/07/29 04:49:25;;;;;;;5.47;4.30;;;;;;;;;;1701028;83;21128;-73
2022/07/29 04:51:53;;;;;;;5.05;3.95;;;;;;;;;;1694001;83;21141;-74
2022/07/29 04:54:22;;;;;;;6.58;4.37;;;;;;;;;;1704629;83;21043;-73
2022/07/29 04:56:49;;;;;;;5.33;4.17;;;;;;;;;;1703753;84;21060;-74
2022/07/29 04:59:16;;;;;;;7.35;4.50;;;;;;;;;;1704021;82;21086;-73
2022/07/29 05:01:43;;;;;;;7.28;4.37;;;;;;;;;;1702297;84;21025;-74
2022/07/29 05:04:10;;;;;;;6.20;4.35;;;;;;;;;;1720647;82;21040;-73
2022/07/29 05:06:39;;;;;;;7.10;4.25;;;;;;;;;;1702420;82;21107;-72
2022/07/29 05:09:06;;;;;;;6.62;5.22;;;;;;;;;;1707740;82;21129;-73
2022/07/29 05:11:34;;;;;;;8.08;5.08;;;;;;;;;;1704460;83;21046;-74
2022/07/29 05:14:02;;;;;;;8.58;4.75;;;;;;;;;;1704459;82;21073;-74
2022/07/29 05:16:28;;;;;;;5.90;4.92;;;;;;;;;;1702628;84;21516;-74
2022/07/29 05:18:55;;;;;;;8.68;5.40;;;;;;;;;;1702370;83;21068;-75
2022/07/29 05:21:22;;;;;;;7.33;4.80;;;;;;;;;;1705468;83;21586;-73
2022/07/29 05:23:51;;;;;;;7.78;5.22;;;;;;;;;;1709976;83;21055;-74
2022/07/29 05:26:18;;;;;;;7.60;5.10;;;;;;;;;;1717940;82;21052;-74
2022/07/29 05:28:45;;;;;;;8.03;5.28;;;;;;;;;;1699957;83;21102;-75
2022/07/29 05:31:14;;;;;;;8.80;5.50;;;;;;;;;;1707142;82;21578;-73
2022/07/29 05:33:41;;;;;;;8.63;5.40;;;;;;;;;;1705155;83;21056;-74
2022/07/29 05:36:08;;;;;;;12.93;5.50;;;;;;;;;;1690391;83;21008;-73
2022/07/29 05:38:37;;;;;;;9.68;5.58;;;;;;;;;;1690474;83;21504;-75
2022/07/29 05:41:05;;;;;;;9.68;5.67;;;;;;;;;;1690738;85;21007;-73
2022/07/29 05:43:32;;;;;;;10.65;5.33;;;;;;;;;;1690319;84;21052;-74
2022/07/29 05:45:59;;;;;;;8.55;5.35;;;;;;;;;;1690465;83;21104;-74
2022/07/29 05:48:25;;;;;;;7.47;5.58;;;;;;;;;;1730895;82;21059;-74
2022/07/29 05:50:52;;;;;;;8.15;5.00;;;;;;;;;;1709385;81;21039;-74
2022/07/29 05:53:19;;;;;;;8.45;5.05;;;;;;;;;;1696864;83;21076;-74
2022/07/29 05:55:47;;;;;;;7.47;4.50;;;;;;;;;;1690331;84;21559;-73
2022/07/29 05:58:15;;;;;;;7.08;4.12;;;;;;;;;;1690616;85;21052;-76
2022/07/29 06:00:44;;;;;;;8.68;5.42;;;;;;;;;;1690494;82;21073;-73
2022/07/29 06:03:11;;;;;;;11.53;5.22;;;;;;;;;;1700818;84;21027;-73
2022/07/29 06:05:38;;;;;;;8.00;4.67;;;;;;;;;;1693003;83;21047;-74
2022/07/29 06:08:06;;;;;;;10.35;3.90;;;;;;;;;;1690524;83;21032;-74
2022/07/29 06:10:37;;;;;;;6.67;4.20;;;;;;;;;;1690276;83;21059;-73
2022/07/29 06:13:03;;;;;;;8.00;4.65;;;;;;;;;;1690400;85;21131;-75
2022/07/29 06:15:30;;;;;;;9.25;4.47;;;;;;;;;;1690415;83;21521;-74
2022/07/29 06:17:57;;;;;;;5.95;4.28;;;;;;;;;;1690548;85;21492;-75
2022/07/29 06:20:26;;;;;;;9.03;4.78;;;;;;;;;;1691850;84;21135;-73
2022/07/29 06:22:54;;;;;;;8.33;4.80;;;;;;;;;;1695740;83;21108;-74
2022/07/29 06:25:22;;;;;;;5.17;4.33;;;;;;;;;;1690382;83;21627;-74
2022/07/29 06:27:48;;;;;;;6.45;3.70;;;;;;;;;;1695810;83;21052;-73
2022/07/29 06:30:15;;;;;;;4.58;3.10;;;;;;;;;;1690614;85;21524;-74
2022/07/29 06:32:43;;;;;;;5.50;3.08;;;;;;;;;;1690572;83;21016;-74
2022/07/29 06:35:10;;;;;;;3.95;3.12;;;;;;;;;;1690344;85;21088;-72
2022/07/29 06:37:37;;;;;;;3.08;2.58;;;;;;;;;;1690513;83;21012;-73
2022/07/29 06:42:54;;;;;;;7.40;3.00;;;;;;;;;;1690595;85;21060;-71
2022/07/29 06:45:21;;;;;;;6.95;2.92;;;;;;;;;;1714413;81;21036;-72
2022/07/29 06:47:49;;;;;;;9.55;3.33;;;;;;;;;;1690319;83;21060;-73
2022/07/29 06:50:18;;;;;;;5.75;3.33;;;;;;;;;;1690296;83;21048;-72
2022/07/29 06:52:46;;;;;;;4.35;3.17;;;;;;;;;;1690090;83;21113;-72
2022/07/29 06:55:13;;;;;;;6.37;3.27;;;;;;;;;;1704504;82;21047;-73
2022/07/29 06:57:41;;;;;;;5.83;3.20;;;;;;;;;;1693098;83;21519;-72
2022/07/29 07:00:10;;;;;;;4.67;3.22;;;;;;;;;;1690594;85;21048;-73
2022/07/29 07:02:38;;;;;;;4.25;3.35;;;;;;;;;;1690573;84;22178;-74
2022/07/29 07:05:07;;;;;;;6.72;3.95;;;;;;;;;;1690259;83;21004;-73
2022/07/29 07:07:33;;;;;;;6.30;4.50;;;;;;;;;;1689269;83;21028;-73
2022/07/29 07:10:01;;;;;;;10.75;5.00;;;;;;;;;;1689750;83;21535;-73
2022/07/29 07:12:29;;;;;;;9.80;4.30;;;;;;;;;;1689570;83;21103;-73
2022/07/29 07:14:57;;;;;;;8.63;4.37;;;;;;;;;;1689377;83;21361;-73
2022/07/29 07:17:24;;;;;;;9.50;4.95;;;;;;;;;;1689794;83;20996;-73
2022/07/29 07:19:52;;;;;;;6.60;3.90;;;;;;;;;;1689294;83;21528;-73
2022/07/29 07:22:19;;;;;;;8.75;5.17;;;;;;;;;;1689679;83;21087;-73
2022/07/29 07:24:47;;;;;;;5.30;4.40;;;;;;;;;;1689398;85;21146;-73
2022/07/29 07:27:14;;;;;;;7.70;4.78;;;;;;;;;;1689652;85;21024;-72
2022/07/29 07:29:40;;;;;;;7.53;4.20;;;;;;;;;;1689403;85;21338;-73
2022/07/29 07:32:08;;;;;;;5.08;3.47;;;;;;;;;;1689257;83;21091;-73
2022/07/29 07:34:35;;;;;;;7.08;3.70;;;;;;;;;;1689657;85;21583;-73
2022/07/29 07:37:03;;;;;;;5.80;3.15;;;;;;;;;;1703031;83;21059;-73
2022/07/29 07:39:30;;;;;;;4.95;3.00;;;;;;;;;;1689663;83;21101;-73
2022/07/29 07:41:57;;;;;;;6.65;3.40;;;;;;;;;;1702745;81;21040;-73
2022/07/29 07:44:25;;;;;;;8.65;3.50;;;;;;;;;;1691635;83;21076;-73
2022/07/29 07:46:52;;;;;;;6.97;3.00;;;;;;;;;;1689007;85;21631;-73
2022/07/29 07:49:19;;;;;;;5.97;3.52;;;;;;;;;;1689327;83;21039;-73
2022/07/29 07:51:46;;;;;;;8.90;3.60;;;;;;;;;;1689577;85;20993;-74
2022/07/29 07:54:14;;;;;;;7.35;3.72;;;;;;;;;;1689346;85;21133;-73
2022/07/29 07:56:42;;;;;;;6.40;3.67;;;;;;;;;;1689568;83;21099;-73
2022/07/29 07:59:10;;;;;;;11.88;3.47;;;;;;;;;;1691046;83;21027;-73
2022/07/29 08:01:38;;;;;;;4.30;3.10;;;;;;;;;;1689776;85;21015;-74
2022/07/29 08:04:04;;;;;;;6.05;2.80;;;;;;;;;;1689570;85;21091;-73
2022/07/29 08:06:34;;;;;;;7.37;3.17;;;;;;;;;;1689649;83;21529;-73
2022/07/29 08:09:04;;;;;;;6.08;3.37;;;;;;;;;;1689393;85;21040;-73
2022/07/29 08:11:32;;;;;;;10.00;3.20;;;;;;;;;;1689376;83;21132;-73
2022/07/29 08:14:01;;;;;;;3.67;2.55;;;;;;;;;;1689436;83;21084;-73
2022/07/29 08:16:28;;;;;;;6.97;2.70;;;;;;;;;;1680078;83;21103;-73
2022/07/29 08:18:56;;;;;;;4.08;2.80;;;;;;;;;;1705958;82;21107;-73
2022/07/29 08:21:24;;;;;;;6.12;2.90;;;;;;;;;;1697294;82;21028;-73
2022/07/29 08:23:52;;;;;;;5.67;2.87;;;;;;;;;;1660880;84;21181;-72
2022/07/29 08:26:22;;;;;;;4.25;2.85;;;;;;;;;;1676210;84;21130;-72
2022/07/29 08:28:50;;;;;;;2.92;2.52;;;;;;;;;;1689895;84;21016;-73
2022/07/29 08:31:18;;;;;;;3.42;2.30;;;;;;;;;;1689427;83;21087;-74
2022/07/29 08:33:45;;;;;;;4.53;2.52;;;;;;;;;;1689426;85;21059;-73
2022/07/29 08:36:12;;;;;;;2.85;2.08;;;;;;;;;;1689508;85;21068;-74
2022/07/29 08:38:41;;;;;;;7.83;2.55;;;;;;;;;;1691162;83;21532;-74
2022/07/29 08:41:09;;;;;;;7.53;2.70;;;;;;;;;;1709193;82;21071;-74
2022/07/29 08:43:37;;;;;;;5.97;2.80;;;;;;;;;;1689409;83;21064;-73
2022/07/29 08:46:04;;;;;;;5.58;2.52;;;;;;;;;;1689537;85;21504;-73
2022/07/29 08:48:31;;;;;;;5.67;2.65;;;;;;;;;;1699819;82;21095;-73
2022/07/29 08:50:58;;;;;;;6.58;2.20;;;;;;;;;;1689488;84;21087;-73
2022/07/29 08:53:27;;;;;;;3.92;2.42;;;;;;;;;;1691202;83;21111;-73
2022/07/29 08:55:55;;;;;;;4.45;2.17;;;;;;;;;;1689419;83;21083;-73
2022/07/29 08:58:24;;;;;;;2.60;2.00;;;;;;;;;;1689792;85;21050;-73
2022/07/29 09:00:55;;;;;;;5.60;2.37;;;;;;;;;;1689281;85;21111;-73
2022/07/29 09:03:29;;;;;;;7.12;2.12;;;;;;;;;;1689401;85;21106;-72
2022/07/29 09:05:55;;;;;;;3.15;1.92;;;;;;;;;;1689477;85;21104;-74
2022/07/29 09:08:23;;;;;;;3.45;1.98;;;;;;;;;;1689350;85;21115;-74
2022/07/29 09:10:51;;;;;;;3.33;1.95;;;;;;;;;;1689344;85;21139;-72
2022/07/29 09:13:19;;;;;;;4.58;1.90;;;;;;;;;;1689550;83;21044;-73
2022/07/29 09:15:46;;;;;;;3.00;1.90;;;;;;;;;;1689808;85;21111;-73
2022/07/29 09:18:17;;;;;;;4.78;1.80;;;;;;;;;;1689262;85;21040;-72
2022/07/29 09:23:34;;;;;;;4.30;2.08;;;;;;;;;;1689782;83;21064;-72
2022/07/29 09:26:05;;;;;;;4.17;2.50;;;;;;;;;;1689449;85;21192;-72
2022/07/29 09:28:33;;;;;;;5.05;2.42;;;;;;;;;;1689444;83;21048;-73
2022/07/29 09:31:02;;;;;;;6.08;2.20;;;;;;;;;;1689472;85;21067;-73
2022/07/29 09:33:35;;;;;;;6.20;2.47;;;;;;;;;;1690024;85;21051;-73
2022/07/29 09:36:07;;;;;;;5.55;2.00;;;;;;;;;;1690749;85;21055;-73
2022/07/29 09:38:36;;;;;;;3.30;1.87;;;;;;;;;;1690196;83;21044;-74
2022/07/29 09:41:04;;;;;;;4.87;1.90;;;;;;;;;;1690383;83;21044;-73
2022/07/29 09:43:31;;;;;;;6.40;2.15;;;;;;;;;;1690269;83;21096;-73
2022/07/29 09:46:08;;;;;;;4.28;2.10;;;;;;;;;;1690373;83;21084;-74
2022/07/29 09:48:36;;;;;;;2.80;1.90;;;;;;;;;;1690058;83;21048;-73
2022/07/29 09:51:06;;;;;;;4.20;2.00;;;;;;;;;;1732853;81;21071;-73
2022/07/29 09:53:37;;;;;;;2.45;1.80;;;;;;;;;;1716961;81;21547;-73
2022/07/29 09:56:05;;;;;;;5.65;2.08;;;;;;;;;;1720466;83;21039;-74
2022/07/29 09:58:34;;;;;;;4.08;2.02;;;;;;;;;;1690387;83;21141;-73
2022/07/29 10:01:02;;;;;;;2.92;1.90;;;;;;;;;;1690524;85;21092;-73
2022/07/29 10:03:29;;;;;;;2.52;2.00;;;;;;;;;;1690583;83;21027;-73
2022/07/29 10:06:08;;;;;;;5.40;1.82;;;;;;;;;;1702632;83;21032;-74
2022/07/29 10:08:39;;;;;;;3.45;2.10;;;;;;;;;;1692053;83;21564;-74
2022/07/29 10:11:17;;;;;;;3.25;2.10;;;;;;;;;;1690669;83;21556;-74
2022/07/29 10:13:46;;;;;;;5.20;1.60;;;;;;;;;;1690567;83;21003;-73
2022/07/29 10:16:14;;;;;;;7.08;1.80;;;;;;;;;;1690912;83;21044;-74
2022/07/29 10:18:43;;;;;;;3.92;2.02;;;;;;;;;;1694167;83;21083;-73
2022/07/29 10:21:12;;;;;;;3.92;1.85;;;;;;;;;;1690253;85;21040;-74
2022/07/29 10:23:41;;;;;;;5.45;1.90;;;;;;;;;;1690545;85;21544;-72
2022/07/29 10:26:10;;;;;;;3.83;1.90;;;;;;;;;;1690314;83;21056;-73
2022/07/29 10:28:36;;;;;;;5.15;1.85;;;;;;;;;;1676305;84;21118;-74
2022/07/29 10:31:05;;;;;;;4.67;2.55;;;;;;;;;;1685470;84;21572;-73
2022/07/29 10:33:48;;;;;;;4.72;1.90;;;;;;;;;;1684725;83;21110;-73
2022/07/29 10:36:26;;;;;;;5.80;1.90;;;;;;;;;;1691790;83;21047;-73
2022/07/29 10:39:17;;;;;;;2.45;2.10;;;;;;;;;;1690257;83;21536;-73
2022/07/29 10:41:54;;;;;;;3.70;1.62;;;;;;;;;;1690250;85;21059;-74
2022/07/29 10:44:23;;;;;;;3.08;2.05;;;;;;;;;;1692662;84;21099;-73
2022/07/29 10:46:51;;;;;;;2.77;2.00;;;;;;;;;;1693602;83;21114;-73
2022/07/29 10:49:21;;;;;;;4.45;1.82;;;;;;;;;;1690439;84;21064;-73
2022/07/29 10:51:57;;;;;;;3.87;1.72;;;;;;;;;;1689780;83;21067;-74
2022/07/29 10:54:49;;;;;;;3.87;2.12;;;;;;;;;;1690567;85;21598;-73
2022/07/29 10:57:27;;;;;;;2.75;2.12;;;;;;;;;;1693137;82;21270;-74
2022/07/29 11:00:14;;;;;;;6.47;2.10;;;;;;;;;;1690543;85;21035;-74
2022/07/29 11:02:42;;;;;;;4.90;2.27;;;;;;;;;;1690283;85;21008;-74
2022/07/29 11:05:18;;;;;;;3.90;2.00;;;;;;;;;;1702636;82;21088;-74
2022/07/29 11:08:18;;;;;;;7.67;2.10;;;;;;;;;;1690297;83;21071;-73
2022/07/29 11:10:48;;;;;;;2.62;1.90;;;;;;;;;;1690355;85;21032;-74
2022/07/29 11:13:47;;;;;;;7.30;2.15;;;;;;;;;;1690527;85;21079;-74
2022/07/29 11:16:16;;;;;;;7.12;2.20;;;;;;;;;;1690455;85;21101;-74
2022/07/29 11:19:04;;;;;;;6.97;2.20;;;;;;;;;;1690313;84;21072;-75
2022/07/29 11:21:36;;;;;;;4.78;2.10;;;;;;;;;;1684080;83;21064;-73
2022/07/29 11:24:15;;;;;;;3.62;1.77;;;;;;;;;;1690224;83;21601;-74
2022/07/29 11:26:42;;;;;;;1.98;1.82;;;;;;;;;;1690525;83;21048;-74
2022/07/29 11:29:24;;;;;;;5.50;2.08;;;;;;;;;;1690161;83;21052;-74
2022/07/29 11:31:55;;;;;;;;;;;;;;;;;;1691898;83;21099;-73
2022/07/29 11:34:26;;;;;;;2.47;1.90;;;;;;;;;;1690283;83;20112;-74
2022/07/29 11:37:14;;;;;;;2.87;1.98;;;;;;;;;;1706558;83;21051;-74
2022/07/29 11:39:46;;;;;;;9.58;2.75;;;;;;;;;;1682741;83;21622;-75
2022/07/29 11:42:24;;;;;;;5.87;3.08;;;;;;;;;;1690496;83;21592;-76
2022/07/29 11:45:00;;;;;;;5.37;3.10;;;;;;;;;;1690290;85;21590;-73
2022/07/29 11:47:29;;;;;;;5.30;2.50;;;;;;;;;;1690543;85;21048;-74
2022/07/29 11:49:58;;;;;;;4.60;2.67;;;;;;;;;;1698050;84;21119;-74
2022/07/29 11:52:43;;;;;;;7.55;2.70;;;;;;;;;;1690428;85;21020;-73
2022/07/29 11:55:13;;;;;;;4.00;2.47;;;;;;;;;;1696536;82;21131;-73
2022/07/29 11:57:54;;;;;;;5.15;2.50;;;;;;;;;;1716810;82;21075;-75
2022/07/29 12:00:37;;;;;;;5.20;2.30;;;;;;;;;;1691708;84;21029;-74
2022/07/29 12:03:10;;;;;;;5.75;2.25;;;;;;;;;;1690682;85;21001;-74
2022/07/29 12:05:42;;;;;;;4.62;2.00;;;;;;;;;;1690589;85;21036;-74
2022/07/29 12:08:18;;;;;;;2.85;2.20;;;;;;;;;;1690601;85;21135;-73
2022/07/29 12:10:45;;;;;;;3.87;1.95;;;;;;;;;;1690461;85;21058;-73
2022/07/29 12:13:13;;;;;;;3.00;1.82;;;;;;;;;;1690662;85;21133;-73
2022/07/29 12:15:44;;;;;;;4.53;1.90;;;;;;;;;;1690327;85;21099;-74
2022/07/29 12:18:15;;;;;;;6.92;2.30;;;;;;;;;;1690322;85;21528;-74
2022/07/29 12:20:42;;;;;;;2.98;2.10;;;;;;;;;;1690615;85;21020;-74
2022/07/29 12:23:16;;;;;;;8.30;2.05;;;;;;;;;;1690289;85;21086;-74
2022/07/29 12:25:41;;;;;;;4.72;1.85;;;;;;;;;;1690358;85;21611;-74
2022/07/29 12:28:10;;;;;;;3.55;1.80;;;;;;;;;;1690308;85;21108;-74
2022/07/29 12:30:45;;;;;;;3.52;1.90;;;;;;;;;;1680115;84;21019;-74
2022/07/29 12:33:15;;;;;;;5.45;1.95;;;;;;;;;;1692361;84;21051;-74
2022/07/29 12:35:43;;;;;;;2.62;1.90;;;;;;;;;;1689978;85;21001;-73
2022/07/29 12:38:12;;;;;;;4.72;1.90;;;;;;;;;;1690730;85;21556;-74
2022/07/29 12:40:42;;;;;;;6.00;3.55;;;;;;;;;;1690638;85;21524;-75
2022/07/29 12:43:15;;;;;;;6.05;2.75;;;;;;;;;;1690522;85;21069;-75
2022/07/29 12:45:49;;;;;;;3.10;2.05;;;;;;;;;;1690665;85;21055;-74
2022/07/29 12:48:17;;;;;;;6.37;1.80;;;;;;;;;;1692350;83;22152;-74
2022/07/29 12:51:01;;;;;;;9.00;1.60;;;;;;;;;;1691286;84;21023;-74
2022/07/29 12:53:29;;;;;;;4.45;1.98;;;;;;;;;;1690367;85;21044;-74
2022/07/29 12:56:01;;;;;;;3.92;1.67;;;;;;;;;;1690630;85;21512;-74
2022/07/29 12:58:34;;;;;;;2.98;2.10;;;;;;;;;;1690532;85;21040;-74
2022/07/29 13:01:17;;;;;;;3.50;1.90;;;;;;;;;;1690401;85;21122;-74
2022/07/29 13:03:56;;;;;;;3.08;2.00;;;;;;;;;;1690552;85;21564;-74
2022/07/29 13:06:42;;;;;;;5.70;2.00;;;;;;;;;;1690447;85;21119;-74
2022/07/29 13:09:19;;;;;;;3.33;2.20;;;;;;;;;;1690422;85;21131;-74
2022/07/29 13:11:52;;;;;;;6.08;1.90;;;;;;;;;;1690604;85;21032;-73
2022/07/29 13:14:36;;;;;;;;;;;;;;;;;;1692997;85;21032;-75
2022/07/29 13:17:07;;;;;;;5.42;2.00;;;;;;;;;;1690699;85;20399;-74
2022/07/29 13:19:42;;;;;;;7.15;2.27;;;;;;;;;;1690542;85;21036;-73
2022/07/29 13:22:11;;;;;;;3.52;1.72;;;;;;;;;;1689956;85;21072;-74
2022/07/29 13:24:55;;;;;;;5.87;2.62;;;;;;;;;;1690523;85;21103;-74
2022/07/29 13:27:25;;;;;;;3.98;1.87;;;;;;;;;;1691602;84;21039;-74
2022/07/29 13:29:56;;;;;;;5.78;1.60;;;;;;;;;;1689878;85;21079;-73
2022/07/29 13:32:24;;;;;;;5.83;1.70;;;;;;;;;;1690732;85;21080;-75
2022/07/29 13:34:51;;;;;;;3.80;1.80;;;;;;;;;;1690479;85;21036;-74
2022/07/29 13:37:19;;;;;;;4.08;1.70;;;;;;;;;;1690637;85;21508;-73
2022/07/29 13:39:47;;;;;;;8.03;1.90;;;;;;;;;;1690679;84;21051;-73
2022/07/29 13:42:14;;;;;;;3.85;1.60;;;;;;;;;;1690390;85;21056;-74
2022/07/29 13:44:43;;;;;;;5.17;1.77;;;;;;;;;;1690700;85;21016;-74
2022/07/29 13:47:10;;;;;;;4.80;1.77;;;;;;;;;;1690541;85;21012;-74
2022/07/29 13:49:38;;;;;;;5.05;1.60;;;;;;;;;;1690665;85;21103;-74
2022/07/29 13:52:07;;;;;;;4.50;1.80;;;;;;;;;;1692475;83;21080;-75
2022/07/29 13:54:37;;;;;;;4.12;1.70;;;;;;;;;;1690717;85;21059;-74
2022/07/29 13:57:03;;;;;;;5.30;1.60;;;;;;;;;;1700955;83;21130;-73
2022/07/29 13:59:32;;;;;;;5.12;1.72;;;;;;;;;;1694890;82;21038;-74
2022/07/29 14:01:59;;;;;;;3.75;1.80;;;;;;;;;;1698235;83;21189;-73
2022/07/29 14:04:26;;;;;;;5.08;1.75;;;;;;;;;;1701148;82;21145;-73
2022/07/29 14:06:53;;;;;;;4.90;1.67;;;;;;;;;;1705734;82;21080;-74
2022/07/29 14:09:23;;;;;;;5.30;1.55;;;;;;;;;;1701408;83;21521;-73
2022/07/29 14:11:51;;;;;;;6.28;2.33;;;;;;;;;;1703034;83;21511;-74
2022/07/29 14:14:18;;;;;;;6.22;1.80;;;;;;;;;;1704541;82;21100;-74
2022/07/29 14:16:45;;;;;;;5.45;1.92;;;;;;;;;;1694385;82;21058;-73
2022/07/29 14:19:13;;;;;;;3.67;1.70;;;;;;;;;;1691915;83;21054;-73
2022/07/29 14:21:40;;;;;;;3.20;1.98;;;;;;;;;;1705783;82;21068;-73
2022/07/29 14:24:08;;;;;;;5.60;2.85;;;;;;;;;;1706385;82;21078;-74
2022/07/29 14:26:36;;;;;;;6.65;2.12;;;;;;;;;;1697148;82;21127;-72
2022/07/29 14:29:03;;;;;;;4.30;2.20;;;;;;;;;;1703477;83;21072;-71
2022/07/29 14:31:30;;;;;;;4.35;1.95;;;;;;;;;;1695825;83;21039;-73
2022/07/29 14:33:59;;;;;;;6.85;2.67;;;;;;;;;;1715604;83;22210;-73
2022/07/29 14:36:27;;;;;;;4.37;2.05;;;;;;;;;;1702750;82;21052;-72
2022/07/29 14:38:54;;;;;;;3.72;1.98;;;;;;;;;;1698475;82;21190;-72
2022/07/29 14:41:23;;;;;;;5.37;1.75;;;;;;;;;;1702561;84;21092;-73
2022/07/29 14:43:50;;;;;;;8.53;2.10;;;;;;;;;;1700974;82;21100;-72
2022/07/29 14:46:16;;;;;;;5.20;1.90;;;;;;;;;;1704441;82;21539;-73
2022/07/29 14:48:43;;;;;;;2.87;1.85;;;;;;;;;;1707124;82;21217;-73
2022/07/29 14:51:11;;;;;;;3.70;1.67;;;;;;;;;;1703323;83;21046;-73
2022/07/29 14:53:38;;;;;;;5.53;2.00;;;;;;;;;;1709920;82;21040;-72
2022/07/29 14:56:04;;;;;;;5.10;2.05;;;;;;;;;;1707977;82;21145;-74
2022/07/29 14:58:34;;;;;;;5.10;2.17;;;;;;;;;;1711859;83;21071;-73
2022/07/29 15:01:01;;;;;;;5.50;2.00;;;;;;;;;;1708056;83;21528;-74
2022/07/29 15:03:29;;;;;;;3.62;1.80;;;;;;;;;;1706284;83;21087;-74
2022/07/29 15:05:57;;;;;;;2.98;1.90;;;;;;;;;;1702711;84;21088;-73
2022/07/29 15:08:27;;;;;;;4.62;2.10;;;;;;;;;;1703675;82;21567;-74